Elgin, Canada
Current Conditions -  °F | °C
As of 7:00 AM on Thursday 30 Oct 2014 (Local Time) from CYBR Reporting Station
Overcast Overcast  
Wind Chill: 24°   Ceiling: 1800
Heat Index: 32°   Visibility: 15mi
Dew Point: 27°   Wind: 9mph
Humidity: 80%   Direction: 20°NNE
Pressure: 30.26"   Gusts: NA
Location:  49.43°N, 100.27°W
Report Text: CYBR 301200Z 02008KT 15SM OVC018 00/M03 A3026 RMK SC8 SLP270
Loading
Personal Weather Stations






























Interactive Weather Map
Tropical Storm Tracking
New forecast layout! Learn more

10-Day Weather Forecast

Advertisements
Track Severe Weather on mobile